createdAt,value
2022-11-03T00:00:45.521Z,555.3
2022-11-03T00:01:49.095Z,555.2
2022-11-03T00:02:51.771Z,555.6
2022-11-03T00:03:53.998Z,555.2
2022-11-03T00:04:55.629Z,555.7
2022-11-03T00:05:58.095Z,555.6
2022-11-03T00:07:00.449Z,555.9
2022-11-03T00:08:02.987Z,556.2
2022-11-03T00:09:05.224Z,556.1
2022-11-03T00:10:07.439Z,556.5
2022-11-03T00:11:09.919Z,557
2022-11-03T00:12:12.113Z,557.7
2022-11-03T00:13:14.291Z,557.6
2022-11-03T00:14:16.861Z,557.9
2022-11-03T00:15:19.043Z,558
2022-11-03T00:16:20.446Z,558.3
2022-11-03T00:17:22.931Z,558.3
2022-11-03T00:18:24.850Z,558.3
2022-11-03T00:19:27.041Z,558.5
2022-11-03T00:20:29.236Z,558.4
2022-11-03T00:21:31.446Z,558.9
2022-11-03T00:22:33.378Z,558.8
2022-11-03T00:23:35.839Z,559.2
2022-11-03T00:24:38.043Z,559.2
2022-11-03T00:25:39.975Z,559.1
2022-11-03T00:26:42.184Z,559.5
2022-11-03T00:27:44.654Z,559.8
2022-11-03T00:28:46.858Z,559.6
2022-11-03T00:29:49.223Z,559.5
2022-11-03T00:30:51.686Z,560
2022-11-03T00:31:53.328Z,559.6
2022-11-03T00:32:55.794Z,560.1
2022-11-03T00:33:57.993Z,560.2
2022-11-03T00:35:00.476Z,560.1
2022-11-03T00:36:02.935Z,560.4
2022-11-03T00:37:05.138Z,560.3
2022-11-03T00:38:07.060Z,560.5
2022-11-03T00:39:09.253Z,560
2022-11-03T00:40:11.754Z,560.3
2022-11-03T00:41:13.949Z,560.3
2022-11-03T00:42:16.429Z,560.7
2022-11-03T00:43:18.614Z,560.5
2022-11-03T00:44:21.086Z,561
2022-11-03T00:45:23.645Z,561
2022-11-03T00:46:26.113Z,561.3
2022-11-03T00:47:28.305Z,561.3
2022-11-03T00:48:30.516Z,561.3
2022-11-03T00:49:32.711Z,561.5
2022-11-03T00:50:34.914Z,561.4
2022-11-03T00:51:37.239Z,561.9
2022-11-03T00:52:39.715Z,561.8
2022-11-03T00:53:41.634Z,562
2022-11-03T00:55:48.844Z,562.2
2022-11-03T00:56:50.746Z,562.2
2022-11-03T00:57:52.393Z,562.4
2022-11-03T00:58:54.592Z,562.5
2022-11-03T00:59:56.782Z,562.4
2022-11-03T01:00:59.732Z,562.2
2022-11-03T01:02:03.038Z,562.4
2022-11-03T01:03:06.977Z,562.6
2022-11-03T01:04:09.674Z,562.8
2022-11-03T01:05:12.141Z,562.3
2022-11-03T01:06:14.347Z,562.3
2022-11-03T01:07:16.817Z,562.3
2022-11-03T01:09:27.110Z,562.3
2022-11-03T01:10:29.317Z,562.3
2022-11-03T01:11:31.539Z,562.7
2022-11-03T01:12:33.726Z,562.5
2022-11-03T01:13:35.646Z,562.8
2022-11-03T01:14:38.114Z,562.5
2022-11-03T01:15:40.743Z,562.8
2022-11-03T01:16:43.298Z,562.4
2022-11-03T01:17:45.219Z,562.5
2022-11-03T01:18:47.405Z,562.6
2022-11-03T01:19:49.886Z,562.2
2022-11-03T01:20:52.074Z,562.2
2022-11-03T01:21:54.610Z,562.4
2022-11-03T01:22:57.079Z,562.7
2022-11-03T01:23:59.273Z,562.5
2022-11-03T01:25:01.470Z,562.5
2022-11-03T01:26:03.944Z,562.7
2022-11-03T01:27:06.434Z,563.2
2022-11-03T01:28:08.650Z,563.3
2022-11-03T01:29:10.317Z,563.1
2022-11-03T01:30:12.531Z,563.4
2022-11-03T01:31:14.731Z,563.6
2022-11-03T01:32:17.272Z,563.4
2022-11-03T01:33:19.753Z,563.8
2022-11-03T01:34:21.686Z,563.5
2022-11-03T01:35:23.891Z,563.6
2022-11-03T01:36:26.387Z,563.9
2022-11-03T01:37:28.857Z,563.9
2022-11-03T01:38:31.328Z,563.9
2022-11-03T01:39:33.521Z,564.6
2022-11-03T01:40:35.443Z,564.6
2022-11-03T01:41:37.644Z,565.1
2022-11-03T01:42:39.843Z,564.6
2022-11-03T01:43:42.057Z,564.6
2022-11-03T01:44:44.265Z,564.3
2022-11-03T01:45:46.164Z,564.4
2022-11-03T01:46:48.361Z,564.6
2022-11-03T01:47:51.283Z,564.1
2022-11-03T01:48:53.769Z,564.1
2022-11-03T01:49:56.235Z,564.1
2022-11-03T01:50:58.166Z,564
2022-11-03T01:52:00.104Z,564.6
2022-11-03T01:53:02.577Z,564.8
2022-11-03T01:54:04.489Z,565.5
2022-11-03T01:55:06.951Z,565
2022-11-03T01:56:09.427Z,565.7
2022-11-03T01:57:11.607Z,565.9
2022-11-03T01:58:14.320Z,566.3
2022-11-03T01:59:16.517Z,566.1
2022-11-03T02:00:18.141Z,566.4
2022-11-03T02:01:21.345Z,566.2
2022-11-03T02:02:24.520Z,566.6
2022-11-03T02:03:26.802Z,566.3
2022-11-03T02:04:29.284Z,566.5
2022-11-03T02:05:31.474Z,566.3
2022-11-03T02:06:33.947Z,566.5
2022-11-03T02:07:36.138Z,566.7
2022-11-03T02:08:38.341Z,566.7
2022-11-03T02:09:40.807Z,566.6
2022-11-03T02:10:43.010Z,566.7
2022-11-03T02:11:45.204Z,566.4
2022-11-03T02:12:47.419Z,566.6
2022-11-03T02:13:49.899Z,567
2022-11-03T02:14:52.102Z,567.3
2022-11-03T02:15:54.289Z,566.7
2022-11-03T02:16:55.909Z,566.9
2022-11-03T02:17:57.831Z,566.7
2022-11-03T02:19:00.381Z,567.4
2022-11-03T02:20:02.294Z,567.4
2022-11-03T02:21:04.483Z,567.6
2022-11-03T02:22:06.674Z,567.9
2022-11-03T02:23:11.168Z,568.1
2022-11-03T02:24:13.364Z,567.8
2022-11-03T02:25:15.292Z,568
2022-11-03T02:26:17.484Z,568.3
2022-11-03T02:27:19.411Z,567.9
2022-11-03T02:28:21.620Z,568.1
2022-11-03T02:29:23.545Z,567.9
2022-11-03T02:30:25.455Z,568.1
2022-11-03T02:31:27.661Z,568.3
2022-11-03T02:32:29.569Z,568.1
2022-11-03T02:33:31.793Z,568.5
2022-11-03T02:34:34.342Z,568.8
2022-11-03T02:35:36.542Z,568.8
2022-11-03T02:36:38.734Z,568.8
2022-11-03T02:37:40.638Z,568.6
2022-11-03T02:38:42.820Z,569.2
2022-11-03T02:39:45.018Z,569.1
2022-11-03T02:40:46.941Z,569
2022-11-03T02:41:49.421Z,568.8
2022-11-03T02:42:51.899Z,569.3
2022-11-03T02:43:53.554Z,568.9
2022-11-03T02:44:55.765Z,569.3
2022-11-03T02:45:58.246Z,569.2
2022-11-03T02:47:00.447Z,569.3
2022-11-03T02:48:02.926Z,569.6
2022-11-03T02:49:05.391Z,570.1
2022-11-03T02:50:07.704Z,570.1
2022-11-03T02:51:10.192Z,570.7
2022-11-03T02:52:12.389Z,570.6
2022-11-03T02:53:14.854Z,570.6
2022-11-03T02:54:16.779Z,571.1
2022-11-03T02:55:18.972Z,571.6
2022-11-03T02:56:20.894Z,571.8
2022-11-03T02:57:23.099Z,572.1
2022-11-03T02:58:25.021Z,572.3
2022-11-03T02:59:27.487Z,572.5
2022-11-03T03:00:29.731Z,572.8
2022-11-03T03:01:32.993Z,572.9
2022-11-03T03:02:35.643Z,573.3
2022-11-03T03:03:37.904Z,573.1
2022-11-03T03:04:40.380Z,573.2
2022-11-03T03:05:42.924Z,573.5
2022-11-03T03:06:45.125Z,573.3
2022-11-03T03:07:47.593Z,573.8
2022-11-03T03:08:50.071Z,573.9
2022-11-03T03:09:51.995Z,574.1
2022-11-03T03:10:54.459Z,573.9
2022-11-03T03:11:56.654Z,574.4
2022-11-03T03:12:58.571Z,574.1
2022-11-03T03:14:00.773Z,575
2022-11-03T03:15:02.981Z,575
2022-11-03T03:16:04.901Z,575.7
2022-11-03T03:17:07.084Z,575.4
2022-11-03T03:18:09.259Z,575.3
2022-11-03T03:19:11.726Z,575.5
2022-11-03T03:20:14.197Z,575.6
2022-11-03T03:21:16.461Z,575.5
2022-11-03T03:22:18.655Z,575.7
2022-11-03T03:23:21.334Z,575.4
2022-11-03T03:24:23.243Z,575.8
2022-11-03T03:25:25.445Z,575.1
2022-11-03T03:26:27.645Z,575.4
2022-11-03T03:27:29.551Z,575.3
2022-11-03T03:28:32.022Z,575.7
2022-11-03T03:29:34.223Z,575.5
2022-11-03T03:30:36.392Z,575.5
2022-11-03T03:31:38.582Z,575.6
2022-11-03T03:32:41.068Z,576.2
2022-11-03T03:34:48.528Z,575.6
2022-11-03T03:35:50.991Z,575.6
2022-11-03T03:36:53.540Z,575.5
2022-11-03T03:37:55.728Z,575.1
2022-11-03T03:38:57.908Z,574.9
2022-11-03T03:40:00.394Z,574.7
2022-11-03T03:42:08.936Z,575
2022-11-03T03:43:11.404Z,574.8
2022-11-03T03:44:13.604Z,575
2022-11-03T03:45:15.789Z,575.1
2022-11-03T03:46:17.989Z,574.9
2022-11-03T03:47:20.197Z,575.1
2022-11-03T03:48:22.396Z,574.9
2022-11-03T03:49:24.307Z,574.9
2022-11-03T03:50:26.481Z,575.4
2022-11-03T03:51:28.109Z,575.8
2022-11-03T03:52:30.364Z,575.7
2022-11-03T03:53:32.841Z,575.8
2022-11-03T03:54:35.345Z,576.1
2022-11-03T03:55:37.552Z,575.8
2022-11-03T03:56:39.741Z,575.7
2022-11-03T03:57:42.211Z,576.2
2022-11-03T03:58:44.111Z,575.8
2022-11-03T03:59:46.406Z,576.1
2022-11-03T04:00:49.325Z,576.1
2022-11-03T04:01:52.277Z,576.4
2022-11-03T04:02:54.831Z,576.6
2022-11-03T04:03:57.044Z,576.9
2022-11-03T04:04:59.243Z,576.9
2022-11-03T04:06:01.441Z,577
2022-11-03T04:07:03.667Z,577.1
2022-11-03T04:08:08.397Z,577.3
2022-11-03T04:09:11.009Z,577
2022-11-03T04:10:12.927Z,577.2
2022-11-03T04:11:15.121Z,577
2022-11-03T04:12:16.773Z,576.7
2022-11-03T04:13:18.690Z,576.6
2022-11-03T04:14:21.154Z,577.2
2022-11-03T04:15:23.627Z,577
2022-11-03T04:16:25.835Z,577.1
2022-11-03T04:17:28.308Z,577.2
2022-11-03T04:18:30.505Z,577.5
2022-11-03T04:19:32.987Z,577.5
2022-11-03T04:20:35.183Z,577.4
2022-11-03T04:21:37.380Z,577.9
2022-11-03T04:22:39.011Z,577.8
2022-11-03T04:23:41.579Z,577.8
2022-11-03T04:24:43.500Z,578.3
2022-11-03T04:25:46.001Z,578.1
2022-11-03T04:26:47.916Z,578
2022-11-03T04:27:50.387Z,578.3
2022-11-03T04:28:52.554Z,578.3
2022-11-03T04:29:54.485Z,578.2
2022-11-03T04:32:01.944Z,578.4
2022-11-03T04:33:04.140Z,579
2022-11-03T04:34:06.644Z,579
2022-11-03T04:35:09.114Z,579.2
2022-11-03T04:36:11.366Z,579.3
2022-11-03T04:37:13.830Z,579.3
2022-11-03T04:38:16.361Z,579.9
2022-11-03T04:39:19.406Z,580.3
2022-11-03T04:40:22.423Z,580.2
2022-11-03T04:41:25.312Z,580.4
2022-11-03T04:42:27.584Z,580.1
2022-11-03T04:43:30.080Z,580.3
2022-11-03T04:44:32.650Z,580.4
2022-11-03T04:45:35.173Z,580.7
2022-11-03T04:46:37.658Z,581.2
2022-11-03T04:47:40.162Z,580.8
2022-11-03T04:48:42.395Z,580.8
2022-11-03T04:49:44.603Z,580.4
2022-11-03T04:50:49.002Z,580.1
2022-11-03T04:51:51.514Z,580.3
2022-11-03T04:52:53.732Z,580.2
2022-11-03T04:53:56.233Z,580.5
2022-11-03T04:54:58.569Z,580.5
2022-11-03T04:57:05.747Z,580.7
2022-11-03T04:58:07.939Z,580.8
2022-11-03T04:59:10.406Z,581.3
2022-11-03T05:00:12.600Z,581.6
2022-11-03T05:02:21.849Z,581.8
2022-11-03T05:03:23.743Z,581.9
2022-11-03T05:04:25.650Z,582.1
2022-11-03T05:05:28.180Z,582.4
2022-11-03T05:06:30.757Z,582.8
2022-11-03T05:07:32.654Z,582.8
2022-11-03T05:08:35.123Z,582.9
2022-11-03T05:10:42.090Z,583.2
2022-11-03T05:11:44.546Z,583.6
2022-11-03T05:12:46.453Z,583.1
2022-11-03T05:13:48.915Z,583.1
2022-11-03T05:15:56.082Z,582.8
2022-11-03T05:16:58.554Z,583.2
2022-11-03T05:18:00.475Z,583.3
2022-11-03T05:19:02.680Z,583.3
2022-11-03T05:20:04.910Z,583.2
2022-11-03T05:21:07.419Z,583.5
2022-11-03T05:22:09.891Z,583.6
2022-11-03T05:23:12.252Z,583.7
2022-11-03T05:25:18.309Z,583.9
2022-11-03T05:26:20.871Z,583.6
2022-11-03T05:27:23.061Z,583.9
2022-11-03T05:28:24.977Z,584.2
2022-11-03T05:29:26.638Z,584
2022-11-03T05:30:28.562Z,584.3
2022-11-03T05:31:30.768Z,584.5
2022-11-03T05:32:33.239Z,584.8
2022-11-03T05:33:35.137Z,585
2022-11-03T05:34:37.319Z,585.2
2022-11-03T05:35:39.530Z,585.5
2022-11-03T05:36:41.767Z,585.1
2022-11-03T05:37:44.249Z,585
2022-11-03T05:38:46.455Z,585.5
2022-11-03T05:39:48.924Z,585.5
2022-11-03T05:40:51.398Z,586
2022-11-03T05:41:53.953Z,586.3
2022-11-03T05:42:56.422Z,586.6
2022-11-03T05:43:58.886Z,587.2
2022-11-03T05:45:01.433Z,587.2
2022-11-03T05:46:04.391Z,587
2022-11-03T05:48:11.922Z,587
2022-11-03T05:49:14.430Z,587.3
2022-11-03T05:50:16.931Z,586.8
2022-11-03T05:51:19.392Z,586.9
2022-11-03T05:52:21.582Z,587.2
2022-11-03T05:53:24.051Z,587.3
2022-11-03T05:54:26.534Z,587.5
2022-11-03T05:55:28.771Z,587.3
2022-11-03T05:56:31.259Z,587.1
2022-11-03T05:57:33.807Z,587.5
2022-11-03T05:58:36.269Z,587.4
2022-11-03T05:59:38.757Z,587.5
2022-11-03T06:01:47.008Z,587.6
2022-11-03T06:02:49.961Z,587.7
2022-11-03T06:03:52.460Z,587.4
2022-11-03T06:04:54.924Z,587.6
2022-11-03T06:05:57.129Z,587.6
2022-11-03T06:06:59.338Z,587.3
2022-11-03T06:08:01.840Z,587.2
2022-11-03T06:09:04.316Z,587.2
2022-11-03T06:10:06.221Z,587.3
2022-11-03T06:11:08.690Z,587
2022-11-03T06:12:10.638Z,587.1
2022-11-03T06:13:13.211Z,587.2
2022-11-03T06:15:21.374Z,587.2
2022-11-03T06:16:23.861Z,587.4
2022-11-03T06:17:26.396Z,587.4
2022-11-03T06:18:28.340Z,587.1
2022-11-03T06:19:30.565Z,587.3
2022-11-03T06:20:33.056Z,587.1
2022-11-03T06:21:35.305Z,586.9
2022-11-03T06:22:37.789Z,587
2022-11-03T06:23:40.333Z,587.1
2022-11-03T06:24:42.818Z,586.8
2022-11-03T06:25:45.066Z,587.2
2022-11-03T06:26:47.542Z,586.9
2022-11-03T06:27:50.012Z,586.9
2022-11-03T06:28:52.287Z,586.6
2022-11-03T06:29:54.764Z,586.6
2022-11-03T06:30:56.735Z,586.9
2022-11-03T06:31:58.938Z,587.2
2022-11-03T06:33:01.143Z,587.4
2022-11-03T06:34:03.633Z,586.9
2022-11-03T06:35:05.541Z,586.8
2022-11-03T06:36:07.725Z,587.4
2022-11-03T06:38:14.647Z,587.5
2022-11-03T06:39:16.861Z,587.9
2022-11-03T06:40:19.363Z,587.8
2022-11-03T06:41:21.293Z,588.3
2022-11-03T06:43:29.165Z,588.3
2022-11-03T06:44:31.723Z,588.1
2022-11-03T06:45:34.200Z,588.7
2022-11-03T06:46:36.670Z,588.6
2022-11-03T06:47:38.879Z,588.1
2022-11-03T06:48:41.346Z,588.6
2022-11-03T06:49:43.546Z,588.5
2022-11-03T06:50:46.726Z,588.3
2022-11-03T06:51:48.926Z,587.8
2022-11-03T06:52:51.005Z,588.1
2022-11-03T06:53:53.206Z,588
2022-11-03T06:54:55.744Z,588.2
2022-11-03T06:55:57.943Z,588.4
2022-11-03T06:57:00.419Z,588.8
2022-11-03T06:58:02.888Z,588.3
2022-11-03T06:59:05.105Z,588.8
2022-11-03T07:01:13.165Z,589.1
2022-11-03T07:02:16.364Z,588.8
2022-11-03T07:03:18.339Z,588.8
2022-11-03T07:04:20.239Z,589.1
2022-11-03T07:05:22.709Z,589
2022-11-03T07:06:24.898Z,589
2022-11-03T07:07:27.373Z,589.6
2022-11-03T07:08:29.276Z,589.6
2022-11-03T07:09:31.753Z,589.6
2022-11-03T07:10:33.986Z,589.8
2022-11-03T07:11:36.186Z,589.8
2022-11-03T07:12:38.658Z,590.1
2022-11-03T07:13:40.599Z,590.1
2022-11-03T07:14:42.814Z,590.1
2022-11-03T07:15:44.992Z,590.4
2022-11-03T07:16:47.597Z,590.6
2022-11-03T07:17:50.066Z,590.3
2022-11-03T07:18:51.970Z,590.4
2022-11-03T07:19:54.175Z,590.1
2022-11-03T07:20:56.901Z,589.8
2022-11-03T07:21:59.554Z,589.8
2022-11-03T07:23:01.727Z,590
2022-11-03T07:24:03.931Z,589.7
2022-11-03T07:25:06.125Z,589.6
2022-11-03T07:26:08.059Z,589.8
2022-11-03T07:27:10.531Z,590
2022-11-03T07:28:13.016Z,590
2022-11-03T07:29:15.214Z,590
2022-11-03T07:30:17.143Z,589.9
2022-11-03T07:31:19.628Z,589.9
2022-11-03T07:32:21.895Z,589.9
2022-11-03T07:33:24.113Z,589.9
2022-11-03T07:34:26.671Z,590.2
2022-11-03T07:36:34.868Z,589.5
2022-11-03T07:37:37.337Z,589.7
2022-11-03T07:38:39.548Z,589.8
2022-11-03T07:39:42.013Z,590
2022-11-03T07:40:44.492Z,590.1
2022-11-03T07:41:46.977Z,590.3
2022-11-03T07:42:49.451Z,590.7
2022-11-03T07:43:51.089Z,590.8
2022-11-03T07:44:53.595Z,590.7
2022-11-03T07:45:55.793Z,590.9
2022-11-03T07:46:58.270Z,590.9
2022-11-03T07:49:05.822Z,591.4
2022-11-03T07:50:08.290Z,591.7
2022-11-03T07:51:10.794Z,591.6
2022-11-03T07:52:13.009Z,592
2022-11-03T07:53:15.217Z,592.3
2022-11-03T07:54:17.682Z,592.5
2022-11-03T07:55:19.906Z,592.6
2022-11-03T07:56:22.674Z,592.6
2022-11-03T07:57:25.210Z,593.2
2022-11-03T07:58:27.433Z,593.4
2022-11-03T07:59:29.653Z,594.2
2022-11-03T08:00:31.900Z,595
2022-11-03T08:01:34.923Z,594.5
2022-11-03T08:02:37.215Z,594.7
2022-11-03T08:03:39.441Z,595.1
2022-11-03T08:04:42.001Z,595.5
2022-11-03T08:05:44.483Z,595.1
2022-11-03T08:06:46.416Z,595.4
2022-11-03T08:07:48.325Z,596
2022-11-03T08:08:50.571Z,595.8
2022-11-03T08:09:52.769Z,596.3
2022-11-03T08:10:54.996Z,596.4
2022-11-03T08:11:57.199Z,595.8
2022-11-03T08:12:59.415Z,596.5
2022-11-03T08:14:01.901Z,596.7
2022-11-03T08:15:04.104Z,596.8
2022-11-03T08:16:06.305Z,597.3
2022-11-03T08:17:08.789Z,597.3
2022-11-03T08:18:11.262Z,597.5
2022-11-03T08:19:13.761Z,597.5
2022-11-03T08:20:16.022Z,597.7
2022-11-03T08:21:18.511Z,598.3
2022-11-03T08:22:20.710Z,598
2022-11-03T08:24:27.660Z,598.6
2022-11-03T08:25:30.270Z,598.5
2022-11-03T08:26:32.467Z,598.5
2022-11-03T08:27:34.667Z,598.6
2022-11-03T08:28:37.180Z,598.9
2022-11-03T08:29:39.097Z,598.7
2022-11-03T08:30:41.041Z,598.7
2022-11-03T08:31:43.275Z,599.3
2022-11-03T08:32:45.751Z,599.5
2022-11-03T08:33:47.675Z,599.6
2022-11-03T08:34:49.338Z,600
2022-11-03T08:35:52.063Z,599.9
2022-11-03T08:36:54.262Z,600
2022-11-03T08:37:56.752Z,599.4
2022-11-03T08:38:58.666Z,599.4
2022-11-03T08:40:00.571Z,599.3
2022-11-03T08:41:02.785Z,599.6
2022-11-03T08:42:05.025Z,599.8
2022-11-03T08:43:06.954Z,599.6
2022-11-03T08:44:09.458Z,599.8
2022-11-03T08:45:11.669Z,599.8
2022-11-03T08:47:19.043Z,599.9
2022-11-03T08:48:21.241Z,600.2
2022-11-03T08:49:23.721Z,600.3
2022-11-03T08:50:26.630Z,600.7
2022-11-03T08:51:29.243Z,600.7
2022-11-03T08:52:31.442Z,600.6
2022-11-03T08:53:33.938Z,600.8
2022-11-03T08:54:36.404Z,601.1
2022-11-03T08:55:38.356Z,601
2022-11-03T08:56:40.836Z,601.3
2022-11-03T08:57:42.746Z,601.1
2022-11-03T08:58:44.762Z,601.4
2022-11-03T08:59:46.984Z,601.4
2022-11-03T09:00:49.468Z,601.3
2022-11-03T09:01:51.776Z,601.7
2022-11-03T09:02:54.269Z,601.9
2022-11-03T09:03:56.938Z,601.7
2022-11-03T09:04:58.909Z,601.9
2022-11-03T09:06:01.390Z,601.6
2022-11-03T09:07:03.395Z,601.5
2022-11-03T09:11:20.561Z,603
2022-11-03T09:12:23.036Z,603.7
2022-11-03T09:13:25.245Z,603.4
2022-11-03T09:14:27.714Z,604
2022-11-03T09:15:29.953Z,604
2022-11-03T09:16:32.444Z,603.9
2022-11-03T09:17:34.652Z,604.4
2022-11-03T09:18:36.857Z,604.6
2022-11-03T09:19:39.131Z,604.8
2022-11-03T09:20:41.054Z,605.5
2022-11-03T09:21:43.262Z,604.7
2022-11-03T09:22:45.903Z,604.8
2022-11-03T09:23:48.109Z,605.4
2022-11-03T09:24:50.307Z,605.7
2022-11-03T09:25:52.785Z,605.6
2022-11-03T09:28:00.263Z,606
2022-11-03T09:29:02.457Z,605.8
2022-11-03T09:31:09.694Z,606.2
2022-11-03T09:32:11.895Z,606.2
2022-11-03T09:33:13.860Z,606.3
2022-11-03T09:34:16.091Z,606.3
2022-11-03T09:35:18.294Z,605.6
2022-11-03T09:36:20.758Z,606.1
2022-11-03T09:37:22.675Z,605.9
2022-11-03T09:38:25.269Z,606.3
2022-11-03T09:39:27.462Z,606.6
2022-11-03T09:40:29.932Z,606.2
2022-11-03T09:42:37.126Z,606.7
2022-11-03T09:43:39.611Z,606.8
2022-11-03T09:44:41.514Z,607
2022-11-03T09:45:43.995Z,607.1
2022-11-03T09:46:45.919Z,606.9
2022-11-03T09:47:47.838Z,606.7
2022-11-03T09:48:50.045Z,607.3
2022-11-03T09:49:52.526Z,607.6
2022-11-03T09:50:54.999Z,607.7
2022-11-03T09:51:57.217Z,607.6
2022-11-03T09:52:59.428Z,608.1
2022-11-03T09:54:02.001Z,608.1
2022-11-03T09:55:04.467Z,608
2022-11-03T09:56:06.686Z,607.8
2022-11-03T09:57:09.182Z,608
2022-11-03T09:58:11.725Z,607.9
2022-11-03T09:59:14.199Z,607.9
2022-11-03T10:00:16.406Z,608.2
2022-11-03T10:01:18.990Z,608.6
2022-11-03T10:02:21.648Z,608.9
2022-11-03T10:03:24.280Z,609.2
2022-11-03T10:04:26.578Z,609.4
2022-11-03T10:05:29.077Z,609.8
2022-11-03T10:06:31.548Z,609.4
2022-11-03T10:07:34.033Z,610.2
2022-11-03T10:08:36.238Z,610.1
2022-11-03T10:09:38.504Z,610.5
2022-11-03T10:10:40.703Z,610.5
2022-11-03T10:11:42.340Z,610.3
2022-11-03T10:12:44.542Z,610.3
2022-11-03T10:13:46.736Z,610.6
2022-11-03T10:14:48.688Z,610.8
2022-11-03T10:15:50.342Z,610.8
2022-11-03T10:17:57.859Z,610.8
2022-11-03T10:19:00.325Z,611
2022-11-03T10:20:02.518Z,610.9
2022-11-03T10:21:04.689Z,610.8
2022-11-03T10:22:07.174Z,611.1
2022-11-03T10:23:10.726Z,611.1
2022-11-03T10:24:13.210Z,611.1
2022-11-03T10:25:15.772Z,611.5
2022-11-03T10:26:18.251Z,611.8
2022-11-03T10:27:20.774Z,612
2022-11-03T10:28:22.969Z,612.1
2022-11-03T10:29:25.055Z,611.8
2022-11-03T10:31:33.205Z,612.5
2022-11-03T10:32:35.423Z,612.4
2022-11-03T10:33:37.648Z,612.2
2022-11-03T10:34:40.194Z,612.4
2022-11-03T10:35:42.399Z,612.7
2022-11-03T10:37:48.762Z,613
2022-11-03T10:38:51.241Z,612.9
2022-11-03T10:39:53.460Z,612.7
2022-11-03T10:40:56.041Z,613.1
2022-11-03T10:41:58.235Z,613.2
2022-11-03T10:43:00.431Z,613.2
2022-11-03T10:44:01.794Z,613.4
2022-11-03T10:45:04.005Z,613.6
2022-11-03T10:47:11.491Z,613.3
2022-11-03T10:48:13.954Z,614.2
2022-11-03T10:49:16.221Z,614
2022-11-03T10:50:18.588Z,614.5
2022-11-03T10:51:20.226Z,614.6
2022-11-03T10:52:23.182Z,615.2
2022-11-03T10:54:31.445Z,615
2022-11-03T10:55:34.334Z,615
2022-11-03T10:56:36.933Z,614.9
2022-11-03T10:57:39.145Z,615.5
2022-11-03T10:58:41.350Z,615.4
2022-11-03T10:59:43.558Z,615.4
2022-11-03T11:00:46.106Z,615.4
2022-11-03T11:01:49.678Z,615.5
2022-11-03T11:02:52.002Z,615.8
2022-11-03T11:03:54.297Z,615.9
2022-11-03T11:04:56.592Z,616
2022-11-03T11:05:59.080Z,616
2022-11-03T11:07:01.282Z,616
2022-11-03T11:08:03.716Z,616.5
2022-11-03T11:09:05.629Z,615.7
2022-11-03T11:10:07.537Z,615.9
2022-11-03T11:11:09.741Z,616
2022-11-03T11:12:12.018Z,615.9
2022-11-03T11:13:14.524Z,615.6
2022-11-03T11:14:16.436Z,615.9
2022-11-03T11:15:18.926Z,615.9
2022-11-03T11:16:21.417Z,615.7
2022-11-03T11:17:23.335Z,615.9
2022-11-03T11:18:25.824Z,615.6
2022-11-03T11:19:28.009Z,616
2022-11-03T11:20:29.955Z,615.6
2022-11-03T11:22:37.473Z,615.6
2022-11-03T11:23:39.951Z,616
2022-11-03T11:24:42.446Z,615.6
2022-11-03T11:25:44.671Z,615.8
2022-11-03T11:26:46.888Z,615.6
2022-11-03T11:27:54.118Z,615.4
2022-11-03T11:28:58.161Z,615.7
2022-11-03T11:30:00.421Z,615.7
2022-11-03T11:31:02.896Z,615.9
2022-11-03T11:32:05.086Z,616.6
2022-11-03T11:33:09.081Z,616.5
2022-11-03T11:34:11.477Z,616.6
2022-11-03T11:35:13.695Z,616.7
2022-11-03T11:36:15.911Z,616.6
2022-11-03T11:37:18.118Z,616.7
2022-11-03T11:38:20.039Z,617
2022-11-03T11:39:22.243Z,617.4
2022-11-03T11:40:24.161Z,617.4
2022-11-03T11:41:26.130Z,618
2022-11-03T11:42:28.138Z,617.9
2022-11-03T11:43:30.405Z,618.1
2022-11-03T11:44:32.882Z,618.4
2022-11-03T11:45:35.061Z,618.3
2022-11-03T11:46:36.689Z,618.6
2022-11-03T11:47:38.620Z,618.5
2022-11-03T11:48:41.113Z,618.4
2022-11-03T11:49:43.297Z,618.7
2022-11-03T11:50:45.766Z,618.9
2022-11-03T11:51:47.690Z,619.1
2022-11-03T11:52:50.156Z,619.2
2022-11-03T11:54:57.625Z,619.8
2022-11-03T11:56:00.096Z,619.4
2022-11-03T11:57:02.569Z,619.8
2022-11-03T11:58:04.738Z,619.8
2022-11-03T11:59:07.033Z,620
2022-11-03T12:00:09.226Z,619.8
2022-11-03T12:01:11.555Z,619.5
2022-11-03T12:02:13.522Z,619.5
2022-11-03T12:03:16.337Z,619.3
2022-11-03T12:05:23.539Z,619.6
2022-11-03T12:06:25.733Z,620
2022-11-03T12:07:27.978Z,619.7
2022-11-03T12:08:30.460Z,619.3
2022-11-03T12:09:32.371Z,619.5
2022-11-03T12:10:34.289Z,619.3
2022-11-03T12:11:36.615Z,619.1
2022-11-03T12:12:38.837Z,619.3
2022-11-03T12:13:41.062Z,619.5
2022-11-03T12:14:43.629Z,619.7
2022-11-03T12:15:46.114Z,619.8
2022-11-03T12:16:48.340Z,620.1
2022-11-03T12:17:50.533Z,620.4
2022-11-03T12:18:52.756Z,620.3
2022-11-03T12:19:54.681Z,620.3
2022-11-03T12:20:57.409Z,620.8
2022-11-03T12:21:59.897Z,620.7
2022-11-03T12:23:02.178Z,620.6
2022-11-03T12:24:04.403Z,621.1
2022-11-03T12:25:06.617Z,621
2022-11-03T12:26:09.072Z,621.4
2022-11-03T12:27:10.985Z,621.8
2022-11-03T12:28:13.171Z,622.3
2022-11-03T12:29:15.098Z,623
2022-11-03T12:30:17.674Z,622.7
2022-11-03T12:31:19.934Z,622.8
2022-11-03T12:33:26.910Z,623.3
2022-11-03T12:34:29.425Z,623.4
2022-11-03T12:35:31.964Z,623.6
2022-11-03T12:36:34.220Z,624
2022-11-03T12:37:36.758Z,623.7
2022-11-03T12:38:39.624Z,623.9
2022-11-03T12:39:42.152Z,623.6
2022-11-03T12:40:44.751Z,623.4
2022-11-03T12:41:46.984Z,623.4
2022-11-03T12:42:49.190Z,623.6
2022-11-03T12:43:51.802Z,623.8
2022-11-03T12:44:54.306Z,623.1
2022-11-03T12:45:56.861Z,623.2
2022-11-03T12:46:59.082Z,623.4
2022-11-03T12:48:01.317Z,623.5
2022-11-03T12:49:03.269Z,623.7
2022-11-03T12:50:05.788Z,623.8
2022-11-03T12:51:08.271Z,623.8
2022-11-03T12:52:10.620Z,624.3
2022-11-03T12:53:12.571Z,624.8
2022-11-03T12:54:15.100Z,624.6
2022-11-03T12:55:17.528Z,624.9
2022-11-03T12:56:19.775Z,625.1
2022-11-03T12:57:21.715Z,625.3
2022-11-03T12:58:23.921Z,625.4
2022-11-03T12:59:26.138Z,625.9
2022-11-03T13:00:28.086Z,625.9
2022-11-03T13:01:31.603Z,626.5
2022-11-03T13:02:34.928Z,626.4
2022-11-03T13:03:36.943Z,626.8
2022-11-03T13:04:39.672Z,626.9
2022-11-03T13:05:42.176Z,626.7
2022-11-03T13:06:44.665Z,626.9
2022-11-03T13:07:46.351Z,627.3
2022-11-03T13:09:53.866Z,627.6
2022-11-03T13:10:55.775Z,627.7
2022-11-03T13:11:58.261Z,627.5
2022-11-03T13:13:00.168Z,627.8
2022-11-03T13:14:02.673Z,628.2
2022-11-03T13:15:04.878Z,628.5
2022-11-03T13:16:07.530Z,628.6
2022-11-03T13:17:10.103Z,628.6
2022-11-03T13:19:17.573Z,629.4
2022-11-03T13:20:20.066Z,629.6
2022-11-03T13:21:21.996Z,629.8
2022-11-03T13:22:24.203Z,630.1
2022-11-03T13:23:26.406Z,630.4
2022-11-03T13:24:28.602Z,630.5
2022-11-03T13:25:31.635Z,630.6
2022-11-03T13:26:33.367Z,630.3
2022-11-03T13:27:35.851Z,630.5
2022-11-03T13:28:38.322Z,630.9
2022-11-03T13:29:40.522Z,630.9
2022-11-03T13:30:42.716Z,631
2022-11-03T13:31:45.189Z,631.4
2022-11-03T13:32:47.751Z,631.4
2022-11-03T13:33:49.959Z,631.3
2022-11-03T13:34:51.891Z,631.1
2022-11-03T13:35:54.737Z,631.1
2022-11-03T13:36:57.241Z,631.1
2022-11-03T13:37:59.722Z,632
2022-11-03T13:39:01.668Z,631.5
2022-11-03T13:40:03.852Z,631.6
2022-11-03T13:42:11.031Z,631.9
2022-11-03T13:43:13.980Z,631.8
2022-11-03T13:44:16.486Z,631.8
2022-11-03T13:45:18.962Z,632
2022-11-03T13:46:21.164Z,632.4
2022-11-03T13:50:38.995Z,632.7
2022-11-03T13:51:41.482Z,632.8
2022-11-03T13:52:44.591Z,632.5
2022-11-03T14:00:17.650Z,633.9
2022-11-03T14:01:21.746Z,634
2022-11-03T14:05:39.300Z,635.2
2022-11-03T14:06:41.844Z,635.3
2022-11-03T14:07:44.046Z,635.6
2022-11-03T14:08:45.940Z,635.2
2022-11-03T14:09:47.871Z,635
2022-11-03T14:10:50.067Z,634.9
2022-11-03T14:11:52.286Z,635.1
2022-11-03T14:12:54.781Z,635.2
2022-11-03T14:13:56.987Z,635.5
2022-11-03T14:14:58.912Z,635.5
2022-11-03T14:16:01.606Z,635.4
2022-11-03T14:17:04.222Z,635.2
2022-11-03T14:18:06.745Z,635.4
2022-11-03T14:19:09.230Z,635.1
2022-11-03T14:20:11.184Z,635.3
2022-11-03T14:21:13.431Z,634.9
2022-11-03T14:22:16.016Z,635.1